createdAt,value
2023-11-20T07:23:14.844Z,1.30
2023-11-20T07:25:44.371Z,1.30
2023-11-20T07:28:11.450Z,1.20
2023-11-20T07:30:38.972Z,1.30
2023-11-20T07:33:07.470Z,1.30
2023-11-20T07:35:36.866Z,1.30
2023-11-20T07:38:04.237Z,1.40
2023-11-20T07:40:31.307Z,1.50
2023-11-20T07:42:58.424Z,1.40
2023-11-20T07:45:26.184Z,1.50
2023-11-20T07:47:53.272Z,1.40
2023-11-20T07:50:20.495Z,1.40
2023-11-20T07:52:47.714Z,1.50
2023-11-20T07:55:14.762Z,1.70
2023-11-20T07:57:42.820Z,1.60
2023-11-20T08:00:13.560Z,1.40
2023-11-20T08:02:41.186Z,1.60
2023-11-20T08:05:10.254Z,1.50
2023-11-20T08:07:37.689Z,1.50
2023-11-20T08:10:06.971Z,1.50
2023-11-20T08:12:35.088Z,1.60
2023-11-20T08:15:04.009Z,1.60
2023-11-20T08:17:31.110Z,1.50
2023-11-20T08:19:58.215Z,1.70
2023-11-20T08:22:25.238Z,1.70
2023-11-20T08:24:52.369Z,1.70
2023-11-20T08:27:19.511Z,1.70
2023-11-20T08:29:46.509Z,1.80
2023-11-20T08:32:13.817Z,1.70
2023-11-20T08:34:40.980Z,1.90
2023-11-20T08:37:08.059Z,1.80
2023-11-20T08:39:43.788Z,2.00
2023-11-20T08:42:10.849Z,2.00
2023-11-20T08:44:37.919Z,1.90
2023-11-20T08:47:07.163Z,1.80
2023-11-20T08:49:34.300Z,2.10
2023-11-20T08:52:04.895Z,2.20
2023-11-20T08:54:33.747Z,2.40
2023-11-20T08:57:26.673Z,2.20
2023-11-20T08:59:56.790Z,2.40
2023-11-20T09:02:24.091Z,2.20
2023-11-20T09:04:51.474Z,2.40
2023-11-20T09:07:18.629Z,2.40
2023-11-20T09:09:47.432Z,2.60
2023-11-20T09:12:14.729Z,2.60
2023-11-20T09:14:41.929Z,2.60
2023-11-20T09:17:09.010Z,2.80
2023-11-20T09:19:36.070Z,2.80
2023-11-20T09:22:03.173Z,3.00
2023-11-20T09:24:30.440Z,2.90
2023-11-20T09:26:57.822Z,2.90
2023-11-20T09:29:25.036Z,2.90
2023-11-20T09:31:55.885Z,3.00
2023-11-20T09:34:25.136Z,3.10
2023-11-20T09:36:52.544Z,3.70
2023-11-20T09:39:20.327Z,4.80
2023-11-20T09:41:47.412Z,5.10
2023-11-20T09:44:14.934Z,5.20
2023-11-20T09:46:45.861Z,4.80
2023-11-20T09:49:24.075Z,4.80
2023-11-20T09:51:53.562Z,4.90
2023-11-20T09:54:21.535Z,4.70
2023-11-20T09:56:49.123Z,4.80
2023-11-20T09:59:16.200Z,5.20
2023-11-20T10:01:47.041Z,5.10
2023-11-20T10:04:18.179Z,5.30
2023-11-20T10:06:46.480Z,5.00
2023-11-20T10:09:14.193Z,4.60
2023-11-20T10:11:48.915Z,4.80
2023-11-20T10:14:21.855Z,4.30
2023-11-20T10:16:57.521Z,4.00
2023-11-20T10:19:25.193Z,3.90
2023-11-20T10:21:53.263Z,3.20
2023-11-20T10:24:22.515Z,3.00
2023-11-20T10:26:50.412Z,3.20
2023-11-20T10:29:18.001Z,3.10
2023-11-20T10:31:46.132Z,2.80
2023-11-20T10:34:14.000Z,2.90
2023-11-20T12:19:14.170Z,4.40
2023-11-20T12:21:44.865Z,4.30
2023-11-20T12:24:12.970Z,4.30
2023-11-20T12:26:40.040Z,4.90
2023-11-20T12:29:09.136Z,4.50
2023-11-20T12:31:36.330Z,4.40
2023-11-20T12:34:03.955Z,4.20
2023-11-20T12:36:32.001Z,4.40
2023-11-20T12:38:59.428Z,4.10
2023-11-20T12:41:28.877Z,3.60
2023-11-20T12:43:55.998Z,3.70
2023-11-20T12:46:23.488Z,3.70
2023-11-20T12:48:52.913Z,3.30
2023-11-20T12:51:37.781Z,3.40
2023-11-20T12:54:05.216Z,3.00
2023-11-20T12:56:32.282Z,2.70
2023-11-20T12:58:59.330Z,2.90
2023-11-20T13:01:26.732Z,2.50
2023-11-20T13:03:54.062Z,2.40
2023-11-20T13:06:21.404Z,2.50
2023-11-20T13:08:50.111Z,2.30
2023-11-20T13:11:19.177Z,2.40
2023-11-20T13:13:49.034Z,2.20
2023-11-20T13:16:18.706Z,2.20
2023-11-20T13:18:51.246Z,2.20
2023-11-20T13:21:27.285Z,2.20
2023-11-20T13:24:11.144Z,2.00
2023-11-20T13:26:45.083Z,1.90
2023-11-20T13:29:12.903Z,1.70
2023-11-20T13:31:40.248Z,1.80
2023-11-20T13:34:08.977Z,1.50
2023-11-20T13:36:41.292Z,1.50
2023-11-20T13:39:09.482Z,1.40
2023-11-20T13:41:37.254Z,1.50
2023-11-20T13:46:34.991Z,1.10
2023-11-20T13:49:02.497Z,1.30
2023-11-20T13:51:30.275Z,1.20
2023-11-20T13:53:58.967Z,1.10
2023-11-20T13:56:26.318Z,1.20
2023-11-20T13:58:53.408Z,1.00
2023-11-20T14:01:20.790Z,1.00
2023-11-20T14:03:48.657Z,1.00
2023-11-20T14:06:17.023Z,1.00
2023-11-20T14:08:44.407Z,0.90
2023-11-20T14:11:11.503Z,0.90
2023-11-20T14:13:38.684Z,0.70
2023-11-20T14:16:09.667Z,0.90
2023-11-20T14:18:37.858Z,0.70
2023-11-20T14:21:08.337Z,0.70
2023-11-20T14:23:36.309Z,0.70
2023-11-20T14:26:19.727Z,0.60
2023-11-20T14:28:51.961Z,0.40
2023-11-20T14:31:19.258Z,0.20
2023-11-20T14:33:46.914Z,0.30
2023-11-20T14:36:15.003Z,0.40
2023-11-20T14:38:42.323Z,0.40
2023-11-20T14:41:09.611Z,0.10
2023-11-20T14:43:37.612Z,0.00
2023-11-20T14:46:07.719Z,0.20
2023-11-20T14:48:36.721Z,0.10
2023-11-20T14:51:05.676Z,0.10
2023-11-20T14:53:32.790Z,0.00
2023-11-20T14:56:00.516Z,0.00
2023-11-20T14:58:27.606Z,-0.20
2023-11-20T15:00:56.074Z,0.00
2023-11-20T15:03:25.700Z,0.00
2023-11-20T15:05:53.867Z,-0.10
2023-11-20T15:08:21.437Z,-0.20
2023-11-20T15:10:48.503Z,-0.10
2023-11-20T15:13:15.663Z,-0.10
2023-11-20T15:15:42.975Z,-0.10
2023-11-20T15:18:10.158Z,-0.20
2023-11-20T15:20:37.654Z,-0.10
2023-11-20T15:23:05.504Z,-0.20
2023-11-20T15:25:34.183Z,-0.30
2023-11-20T15:28:01.615Z,-0.10
2023-11-20T15:30:29.361Z,-0.20
2023-11-20T15:32:57.729Z,-0.20
2023-11-20T15:47:22.418Z,-0.20
2023-11-20T15:49:49.805Z,-0.20
2023-11-20T15:52:17.672Z,-0.10
2023-11-20T15:54:44.839Z,-0.10
